createdAt,value
2023-05-15T00:01:36.489Z,0.32
2023-05-15T00:04:02.951Z,0.30
2023-05-15T00:06:29.394Z,0.32
2023-05-15T00:08:55.726Z,0.30
2023-05-15T00:11:23.562Z,0.50
2023-05-15T00:13:50.280Z,0.30
2023-05-15T00:16:16.741Z,0.30
2023-05-15T00:18:43.282Z,0.40
2023-05-15T00:21:09.780Z,0.50
2023-05-15T00:23:36.410Z,0.50
2023-05-15T00:26:02.908Z,0.40
2023-05-15T00:28:29.197Z,0.50
2023-05-15T00:30:55.752Z,0.35
2023-05-15T00:33:22.130Z,0.40
2023-05-15T00:35:48.464Z,0.40
2023-05-15T00:38:14.838Z,1.88
2023-05-15T00:40:41.558Z,1.40
2023-05-15T00:43:08.556Z,1.40
2023-05-15T00:45:35.452Z,0.60
2023-05-15T00:48:01.841Z,0.52
2023-05-15T00:50:28.730Z,0.40
2023-05-15T00:52:55.436Z,0.60
2023-05-15T00:55:21.811Z,0.40
2023-05-15T00:57:48.908Z,0.57
2023-05-15T01:00:18.384Z,0.60
2023-05-15T01:02:44.789Z,0.90
2023-05-15T01:05:11.945Z,0.50
2023-05-15T01:07:43.823Z,0.30
2023-05-15T01:10:10.740Z,0.30
2023-05-15T01:12:38.284Z,0.20
2023-05-15T01:15:04.939Z,0.20
2023-05-15T01:17:31.450Z,0.30
2023-05-15T01:19:59.000Z,0.50
2023-05-15T01:22:31.374Z,0.80
2023-05-15T01:25:03.844Z,1.52
2023-05-15T01:27:38.561Z,0.70
2023-05-15T01:30:08.234Z,1.10
2023-05-15T01:32:34.823Z,1.15
2023-05-15T01:35:15.047Z,1.20
2023-05-15T01:37:44.057Z,1.00
2023-05-15T01:40:11.737Z,1.08
2023-05-15T01:42:39.787Z,1.15
2023-05-15T01:45:09.615Z,1.35
2023-05-15T01:47:40.613Z,1.30
2023-05-15T01:50:07.236Z,1.02
2023-05-15T01:52:34.610Z,1.17
2023-05-15T01:55:05.821Z,0.75
2023-05-15T01:57:33.424Z,0.85
2023-05-15T02:00:00.923Z,0.82
2023-05-15T02:02:28.080Z,0.77
2023-05-15T02:04:54.959Z,0.80
2023-05-15T02:07:21.482Z,1.10
2023-05-15T02:09:48.219Z,1.17
2023-05-15T02:12:15.160Z,1.10
2023-05-15T02:14:42.873Z,1.17
2023-05-15T02:17:09.325Z,0.90
2023-05-15T02:19:35.896Z,0.77
2023-05-15T02:22:02.224Z,0.80
2023-05-15T02:24:28.497Z,0.70
2023-05-15T02:26:55.271Z,1.15
2023-05-15T02:29:24.598Z,0.90
2023-05-15T02:31:56.819Z,1.00
2023-05-15T02:34:32.160Z,0.80
2023-05-15T02:37:00.622Z,0.88
2023-05-15T02:39:29.075Z,0.65
2023-05-15T02:41:56.671Z,0.73
2023-05-15T02:44:23.182Z,0.70
2023-05-15T02:46:50.212Z,1.85
2023-05-15T02:49:16.631Z,1.20
2023-05-15T02:51:42.964Z,1.52
2023-05-15T02:54:09.682Z,0.82
2023-05-15T02:56:36.075Z,0.70
2023-05-15T02:59:02.650Z,0.95
2023-05-15T03:01:29.030Z,1.10
2023-05-15T03:03:55.381Z,0.80
2023-05-15T03:06:22.072Z,0.98
2023-05-15T03:08:48.395Z,1.23
2023-05-15T03:11:14.900Z,1.20
2023-05-15T03:13:41.458Z,0.70
2023-05-15T03:16:07.853Z,0.90
2023-05-15T03:18:34.239Z,1.40
2023-05-15T03:21:00.611Z,1.63
2023-05-15T03:23:27.096Z,0.90
2023-05-15T03:25:53.478Z,0.80
2023-05-15T03:28:19.823Z,0.60
2023-05-15T03:30:46.200Z,0.80
2023-05-15T03:33:12.584Z,0.75
2023-05-15T03:35:39.302Z,0.47
2023-05-15T03:38:05.610Z,0.50
2023-05-15T03:40:31.988Z,0.43
2023-05-15T03:42:58.425Z,0.80
2023-05-15T03:45:24.977Z,0.70
2023-05-15T03:47:51.812Z,0.45
2023-05-15T03:50:18.136Z,0.50
2023-05-15T03:52:44.541Z,0.80
2023-05-15T03:55:11.042Z,1.25
2023-05-15T03:57:37.454Z,1.67
2023-05-15T04:00:09.804Z,1.23
2023-05-15T04:02:36.765Z,1.13
2023-05-15T04:05:04.017Z,1.25
2023-05-15T04:07:30.378Z,1.58
2023-05-15T04:09:56.778Z,1.38
2023-05-15T04:12:23.130Z,1.30
2023-05-15T04:14:49.544Z,2.00
2023-05-15T04:17:15.837Z,2.00
2023-05-15T04:19:43.118Z,1.80
2023-05-15T04:22:09.517Z,1.75
2023-05-15T04:24:35.840Z,2.00
2023-05-15T04:27:02.319Z,2.05
2023-05-15T04:29:28.625Z,3.40
2023-05-15T04:31:54.933Z,7.63
2023-05-15T04:34:21.436Z,8.05
2023-05-15T04:36:48.392Z,8.60
2023-05-15T04:39:14.974Z,12.48
2023-05-15T04:41:41.325Z,15.65
2023-05-15T04:44:08.562Z,19.63
2023-05-15T04:46:37.305Z,17.95
2023-05-15T04:49:03.815Z,18.92
2023-05-15T04:51:30.145Z,18.67
2023-05-15T04:53:56.552Z,20.05
2023-05-15T04:56:22.865Z,18.48
2023-05-15T04:58:49.163Z,18.45
2023-05-15T05:01:15.727Z,27.15
2023-05-15T05:03:42.171Z,29.73
2023-05-15T05:06:08.494Z,25.83
2023-05-15T05:08:34.867Z,26.42
2023-05-15T05:11:01.274Z,28.55
2023-05-15T05:13:27.716Z,24.08
2023-05-15T05:15:54.087Z,27.20
2023-05-15T05:18:20.501Z,20.48
2023-05-15T05:20:46.942Z,29.20
2023-05-15T05:23:15.032Z,25.25
2023-05-15T05:25:41.394Z,27.95
2023-05-15T05:28:07.771Z,23.38
2023-05-15T05:30:34.143Z,19.88
2023-05-15T05:33:00.493Z,23.52
2023-05-15T05:35:28.336Z,30.88
2023-05-15T05:37:54.711Z,33.05
2023-05-15T05:40:20.997Z,25.98
2023-05-15T05:42:47.444Z,27.48
2023-05-15T05:45:13.787Z,32.42
2023-05-15T05:47:40.176Z,34.20
2023-05-15T05:50:07.160Z,34.05
2023-05-15T05:52:33.485Z,29.08
2023-05-15T05:54:59.926Z,38.85
2023-05-15T05:57:26.422Z,35.97
2023-05-15T05:59:52.838Z,30.77
2023-05-15T06:02:19.253Z,38.15
2023-05-15T06:04:46.300Z,23.42
2023-05-15T06:07:13.080Z,32.05
2023-05-15T06:09:39.362Z,33.17
2023-05-15T06:12:08.007Z,25.50
2023-05-15T06:14:34.516Z,22.40
2023-05-15T06:17:01.336Z,18.25
2023-05-15T06:19:27.886Z,26.88
2023-05-15T06:21:54.496Z,26.63
2023-05-15T06:24:20.797Z,28.75
2023-05-15T06:26:47.301Z,22.83
2023-05-15T06:29:13.892Z,24.08
2023-05-15T06:31:40.437Z,26.23
2023-05-15T06:34:06.854Z,24.63
2023-05-15T06:36:33.290Z,21.50
2023-05-15T06:38:59.729Z,19.90
2023-05-15T06:41:26.126Z,17.65
2023-05-15T06:43:52.458Z,28.15
2023-05-15T06:46:19.249Z,27.55
2023-05-15T06:48:47.504Z,27.90
2023-05-15T06:51:13.993Z,32.28
2023-05-15T06:53:41.746Z,28.77
2023-05-15T06:56:08.107Z,38.92
2023-05-15T06:58:34.565Z,25.90
2023-05-15T07:01:03.903Z,22.05
2023-05-15T07:03:30.510Z,25.13
2023-05-15T07:05:57.296Z,26.80
2023-05-15T07:08:23.855Z,26.25
2023-05-15T07:10:51.413Z,29.10
2023-05-15T07:13:18.216Z,26.60
2023-05-15T07:15:44.699Z,23.45
2023-05-15T07:18:11.100Z,16.02
2023-05-15T07:20:38.084Z,23.08
2023-05-15T07:23:05.470Z,21.13
2023-05-15T07:25:31.892Z,18.25
2023-05-15T07:27:58.232Z,18.67
2023-05-15T07:30:25.359Z,19.27
2023-05-15T07:32:51.820Z,23.15
2023-05-15T07:35:18.429Z,21.88
2023-05-15T07:37:46.431Z,27.33
2023-05-15T07:40:13.220Z,27.30
2023-05-15T07:42:42.597Z,24.95
2023-05-15T07:45:09.470Z,29.67
2023-05-15T07:47:36.231Z,25.48
2023-05-15T07:50:02.763Z,29.88
2023-05-15T07:52:29.235Z,29.33
2023-05-15T07:54:55.615Z,29.50
2023-05-15T07:57:22.227Z,31.52
2023-05-15T07:59:48.717Z,27.95
2023-05-15T08:02:15.677Z,39.55
2023-05-15T08:04:42.323Z,31.73
2023-05-15T08:07:08.968Z,23.02
2023-05-15T08:09:35.360Z,17.92
2023-05-15T08:12:17.631Z,24.70
2023-05-15T08:14:44.005Z,24.20
2023-05-15T08:17:11.508Z,24.25
2023-05-15T08:19:37.899Z,35.33
2023-05-15T08:22:04.326Z,27.40
2023-05-15T08:24:30.705Z,24.10
2023-05-15T08:26:57.260Z,34.58
2023-05-15T08:29:23.619Z,27.70
2023-05-15T08:31:50.084Z,33.67
2023-05-15T08:34:16.499Z,24.90
2023-05-15T08:36:43.343Z,22.67
2023-05-15T08:39:09.938Z,19.92
2023-05-15T08:41:47.872Z,23.83
2023-05-15T08:44:14.270Z,23.20
2023-05-15T08:46:41.192Z,29.63
2023-05-15T08:49:22.747Z,26.60
2023-05-15T08:51:49.220Z,21.67
2023-05-15T08:54:15.636Z,25.30
2023-05-15T08:56:42.399Z,22.75
2023-05-15T08:59:08.917Z,31.25
2023-05-15T09:01:35.934Z,23.48
2023-05-15T09:04:02.384Z,23.13
2023-05-15T09:06:28.976Z,19.40
2023-05-15T09:08:56.399Z,17.77
2023-05-15T09:11:24.413Z,21.25
2023-05-15T09:13:50.771Z,18.25
2023-05-15T09:16:17.208Z,19.67
2023-05-15T09:18:43.965Z,14.98
2023-05-15T09:21:27.107Z,14.95
2023-05-15T09:23:54.932Z,20.85
2023-05-15T09:26:21.991Z,18.60
2023-05-15T09:28:48.736Z,21.92
2023-05-15T09:31:19.457Z,22.77
2023-05-15T09:33:46.254Z,20.20
2023-05-15T09:36:21.241Z,20.90
2023-05-15T09:38:49.381Z,20.02
2023-05-15T09:41:24.259Z,18.40
2023-05-15T09:43:50.837Z,17.40
2023-05-15T09:46:17.476Z,23.15
2023-05-15T09:48:44.065Z,23.70
2023-05-15T09:51:18.211Z,23.73
2023-05-15T09:53:54.225Z,21.90
2023-05-15T09:56:20.851Z,18.20
2023-05-15T09:58:54.550Z,21.50
2023-05-15T10:01:24.123Z,21.95
2023-05-15T10:03:57.634Z,17.98
2023-05-15T10:06:24.085Z,15.65
2023-05-15T10:08:54.335Z,20.58
2023-05-15T10:11:24.066Z,21.88
2023-05-15T10:13:50.487Z,22.55
2023-05-15T10:16:20.216Z,23.77
2023-05-15T10:18:47.549Z,23.40
2023-05-15T10:21:15.585Z,28.02
2023-05-15T10:23:42.743Z,29.98
2023-05-15T10:26:14.306Z,33.35
2023-05-15T10:28:42.848Z,35.25
2023-05-15T10:31:10.977Z,29.30
2023-05-15T10:33:37.665Z,27.45
2023-05-15T10:36:04.531Z,31.42
2023-05-15T10:38:31.729Z,26.63
2023-05-15T10:41:12.988Z,25.00
2023-05-15T10:43:43.717Z,29.10
2023-05-15T10:46:11.058Z,29.25
2023-05-15T10:48:37.853Z,26.58
2023-05-15T10:51:04.386Z,30.38
2023-05-15T10:53:31.803Z,26.58
2023-05-15T10:55:58.273Z,29.50
2023-05-15T10:58:24.882Z,24.98
2023-05-15T11:00:51.610Z,24.48
2023-05-15T11:03:48.037Z,17.60
2023-05-15T11:06:15.938Z,20.58
2023-05-15T11:08:43.111Z,27.90
2023-05-15T11:11:09.470Z,26.15
2023-05-15T11:13:55.302Z,26.88
2023-05-15T11:16:57.982Z,25.08
2023-05-15T11:19:25.214Z,21.75
2023-05-15T11:22:10.295Z,26.83
2023-05-15T11:24:57.914Z,27.15
2023-05-15T11:27:24.415Z,19.85
2023-05-15T11:30:03.955Z,22.92
2023-05-15T11:32:49.452Z,19.85
2023-05-15T11:35:21.974Z,18.40
2023-05-15T11:37:49.668Z,18.35
2023-05-15T11:40:24.206Z,18.08
2023-05-15T11:43:09.622Z,19.05
2023-05-15T11:45:37.112Z,16.63
2023-05-15T11:48:04.976Z,23.63
2023-05-15T11:50:32.995Z,23.95
2023-05-15T11:53:04.022Z,24.70
2023-05-15T11:55:31.336Z,19.98
2023-05-15T11:57:57.782Z,17.25
2023-05-15T12:00:24.460Z,14.55
2023-05-15T12:02:51.098Z,15.20
2023-05-15T12:05:17.611Z,13.73
2023-05-15T12:07:44.357Z,18.25
2023-05-15T12:10:11.533Z,13.93
2023-05-15T12:12:41.692Z,12.60
2023-05-15T12:15:11.608Z,10.65
2023-05-15T12:17:38.856Z,10.93
2023-05-15T12:20:09.742Z,13.45
2023-05-15T12:22:36.815Z,11.05
2023-05-15T12:25:03.458Z,13.15
2023-05-15T12:27:30.702Z,13.65
2023-05-15T12:29:57.084Z,13.30
2023-05-15T12:32:23.671Z,19.05
2023-05-15T12:34:50.246Z,17.88
2023-05-15T12:37:19.076Z,13.15
2023-05-15T12:40:00.445Z,9.82
2023-05-15T12:42:27.215Z,9.57
2023-05-15T12:44:55.084Z,16.45
2023-05-15T12:47:25.037Z,15.52
2023-05-15T12:49:55.353Z,14.05
2023-05-15T12:52:21.958Z,13.68
2023-05-15T12:54:48.348Z,14.18
2023-05-15T12:57:14.811Z,18.25
2023-05-15T12:59:41.304Z,13.07
2023-05-15T13:02:11.888Z,12.82
2023-05-15T13:04:38.584Z,9.25
2023-05-15T13:07:05.279Z,11.18
2023-05-15T13:09:33.264Z,13.95
2023-05-15T13:12:02.564Z,14.15
2023-05-15T13:14:32.042Z,16.30
2023-05-15T13:16:59.831Z,13.05
2023-05-15T13:19:26.379Z,10.10
2023-05-15T13:21:52.730Z,8.07
2023-05-15T13:24:19.347Z,12.45
2023-05-15T13:26:45.872Z,13.57
2023-05-15T13:29:12.258Z,11.27
2023-05-15T13:31:39.004Z,8.95
2023-05-15T13:34:05.509Z,8.77
2023-05-15T13:36:32.175Z,11.80
2023-05-15T13:38:58.609Z,10.90
2023-05-15T13:41:24.994Z,9.40
2023-05-15T13:43:51.562Z,15.63
2023-05-15T13:46:17.963Z,9.70
2023-05-15T13:48:44.530Z,12.85
2023-05-15T13:51:10.993Z,12.02
2023-05-15T13:53:37.302Z,13.23
2023-05-15T13:56:03.840Z,12.27
2023-05-15T13:58:30.149Z,9.30
2023-05-15T14:00:56.749Z,6.55
2023-05-15T14:03:23.267Z,12.45
2023-05-15T14:05:49.795Z,9.30
2023-05-15T14:08:16.502Z,8.18
2023-05-15T14:10:43.579Z,8.07
2023-05-15T14:13:10.286Z,8.38
2023-05-15T14:15:36.645Z,7.32
2023-05-15T14:18:03.163Z,9.65
2023-05-15T14:20:29.979Z,9.65
2023-05-15T14:22:56.382Z,7.07
2023-05-15T14:25:22.742Z,6.50
2023-05-15T14:27:49.136Z,8.20
2023-05-15T14:30:15.613Z,5.72
2023-05-15T14:32:42.042Z,7.65
2023-05-15T14:35:08.594Z,5.80
2023-05-15T14:37:36.049Z,8.30
2023-05-15T14:40:02.436Z,5.93
2023-05-15T14:42:28.828Z,6.97
2023-05-15T14:44:55.351Z,5.55
2023-05-15T14:47:21.742Z,6.78
2023-05-15T14:49:48.100Z,6.13
2023-05-15T14:52:14.497Z,5.63
2023-05-15T14:54:40.932Z,5.38
2023-05-15T14:57:07.713Z,4.78
2023-05-15T14:59:34.293Z,5.95
2023-05-15T15:02:00.769Z,6.25
2023-05-15T15:04:29.143Z,4.78
2023-05-15T15:06:57.059Z,5.05
2023-05-15T15:09:24.067Z,5.63
2023-05-15T15:11:50.454Z,5.70
2023-05-15T15:14:16.957Z,6.05
2023-05-15T15:16:44.185Z,5.20
2023-05-15T15:19:10.871Z,4.57
2023-05-15T15:21:37.334Z,4.57
2023-05-15T15:24:03.734Z,5.15
2023-05-15T15:26:30.028Z,5.38
2023-05-15T15:29:00.778Z,4.72
2023-05-15T15:31:28.191Z,7.18
2023-05-15T15:33:54.695Z,5.03
2023-05-15T15:36:21.096Z,4.25
2023-05-15T15:38:47.573Z,4.40
2023-05-15T15:41:14.479Z,4.35
2023-05-15T15:43:40.791Z,4.35
2023-05-15T15:46:07.256Z,4.45
2023-05-15T15:48:33.786Z,4.28
2023-05-15T15:51:00.212Z,4.20
2023-05-15T15:53:26.700Z,3.97
2023-05-15T15:55:53.034Z,3.63
2023-05-15T15:58:19.789Z,2.70
2023-05-15T16:00:46.491Z,2.40
2023-05-15T16:03:12.884Z,3.20
2023-05-15T16:05:39.241Z,2.30
2023-05-15T16:08:05.586Z,2.60
2023-05-15T16:10:32.135Z,3.60
2023-05-15T16:12:58.767Z,3.22
2023-05-15T16:15:25.291Z,3.78
2023-05-15T16:17:53.043Z,3.20
2023-05-15T16:20:20.001Z,4.38
2023-05-15T16:22:46.312Z,2.63
2023-05-15T16:25:13.063Z,2.63
2023-05-15T16:27:39.451Z,3.20
2023-05-15T16:30:06.088Z,2.63
2023-05-15T16:32:33.883Z,3.67
2023-05-15T16:35:00.556Z,3.50
2023-05-15T16:37:26.936Z,4.10
2023-05-15T16:39:53.338Z,4.82
2023-05-15T16:42:19.734Z,4.30
2023-05-15T16:44:46.026Z,3.80
2023-05-15T16:47:12.456Z,3.05
2023-05-15T16:49:38.736Z,3.53
2023-05-15T16:52:05.249Z,3.17
2023-05-15T16:54:31.747Z,3.65
2023-05-15T16:56:58.094Z,4.45
2023-05-15T16:59:24.410Z,4.47
2023-05-15T17:01:51.071Z,7.07
2023-05-15T17:04:17.442Z,3.88
2023-05-15T17:06:43.898Z,3.85
2023-05-15T17:09:10.298Z,3.33
2023-05-15T17:11:37.119Z,3.08
2023-05-15T17:14:03.465Z,3.38
2023-05-15T17:16:29.969Z,3.88
2023-05-15T17:18:56.552Z,5.22
2023-05-15T17:21:23.020Z,7.28
2023-05-15T17:23:52.002Z,4.93
2023-05-15T17:26:18.362Z,6.75
2023-05-15T17:28:44.678Z,6.85
2023-05-15T17:31:11.179Z,7.88
2023-05-15T17:33:37.525Z,8.73
2023-05-15T17:36:04.089Z,11.65
2023-05-15T17:38:30.562Z,10.85
2023-05-15T17:40:56.929Z,10.52
2023-05-15T17:43:23.304Z,11.77
2023-05-15T17:45:49.826Z,10.60
2023-05-15T17:48:16.189Z,9.15
2023-05-15T17:50:42.557Z,10.82
2023-05-15T17:53:08.957Z,9.18
2023-05-15T17:55:35.312Z,6.55
2023-05-15T17:58:01.746Z,5.63
2023-05-15T18:00:28.033Z,5.90
2023-05-15T18:02:54.535Z,8.43
2023-05-15T18:05:20.962Z,9.73
2023-05-15T18:07:48.174Z,8.10
2023-05-15T18:10:14.572Z,11.63
2023-05-15T18:12:41.095Z,11.80
2023-05-15T18:15:07.886Z,11.35
2023-05-15T18:17:34.249Z,11.80
2023-05-15T18:20:01.782Z,9.82
2023-05-15T18:22:28.172Z,10.50
2023-05-15T18:24:54.646Z,10.90
2023-05-15T18:27:20.938Z,11.55
2023-05-15T18:29:47.355Z,11.60
2023-05-15T18:32:13.786Z,12.38
2023-05-15T18:34:40.103Z,15.02
2023-05-15T18:37:06.527Z,11.43
2023-05-15T18:39:32.914Z,12.05
2023-05-15T18:42:00.253Z,10.15
2023-05-15T18:44:26.635Z,9.70
2023-05-15T18:46:53.182Z,9.70
2023-05-15T18:49:19.650Z,9.95
2023-05-15T18:51:46.262Z,6.40
2023-05-15T18:54:12.715Z,12.20
2023-05-15T18:56:40.548Z,9.82
2023-05-15T18:59:08.655Z,9.85
2023-05-15T19:01:35.083Z,7.82
2023-05-15T19:04:01.423Z,5.68
2023-05-15T19:06:27.776Z,6.60
2023-05-15T19:08:54.073Z,7.10
2023-05-15T19:11:21.288Z,8.10
2023-05-15T19:13:47.607Z,6.63
2023-05-15T19:16:14.000Z,4.90
2023-05-15T19:18:40.494Z,4.82
2023-05-15T19:21:07.055Z,6.22
2023-05-15T19:23:33.413Z,6.15
2023-05-15T19:26:00.010Z,6.18
2023-05-15T19:28:26.374Z,10.05
2023-05-15T19:30:52.727Z,8.93
2023-05-15T19:33:19.336Z,8.30
2023-05-15T19:35:45.792Z,8.25
2023-05-15T19:38:12.278Z,7.35
2023-05-15T19:40:38.584Z,7.30
2023-05-15T19:43:04.898Z,7.43
2023-05-15T19:45:31.181Z,6.50
2023-05-15T19:47:59.070Z,8.63
2023-05-15T19:50:25.830Z,7.68
2023-05-15T19:52:52.276Z,8.55
2023-05-15T19:55:18.643Z,8.45
2023-05-15T19:57:45.048Z,8.43
2023-05-15T20:00:12.584Z,7.47
2023-05-15T20:02:41.283Z,7.90
2023-05-15T20:05:08.131Z,6.45
2023-05-15T20:07:35.338Z,6.03
2023-05-15T20:10:01.767Z,6.57
2023-05-15T20:12:28.526Z,6.60
2023-05-15T20:14:54.899Z,6.47
2023-05-15T20:17:21.262Z,4.63
2023-05-15T20:19:49.574Z,3.42
2023-05-15T20:22:17.133Z,4.78
2023-05-15T20:24:44.317Z,3.33
2023-05-15T20:27:11.441Z,4.18
2023-05-15T20:29:38.549Z,3.55
2023-05-15T20:32:05.126Z,4.63
2023-05-15T20:34:32.882Z,5.60
2023-05-15T20:36:59.229Z,5.35
2023-05-15T20:39:25.599Z,8.63
2023-05-15T20:41:51.925Z,8.15
2023-05-15T20:44:18.226Z,12.35
2023-05-15T20:46:44.881Z,9.52
2023-05-15T20:49:11.879Z,8.15
2023-05-15T20:51:38.273Z,6.30
2023-05-15T20:54:04.780Z,5.70
2023-05-15T20:56:31.287Z,7.82
2023-05-15T20:58:59.791Z,8.80
2023-05-15T21:01:26.608Z,7.78
2023-05-15T21:03:53.066Z,7.68
2023-05-15T21:06:19.399Z,8.30
2023-05-15T21:08:45.774Z,8.05
2023-05-15T21:11:12.111Z,10.88
2023-05-15T21:13:38.410Z,8.65
2023-05-15T21:16:04.897Z,11.65
2023-05-15T21:18:31.411Z,9.82
2023-05-15T21:20:57.739Z,12.10
2023-05-15T21:23:24.182Z,20.83
2023-05-15T21:25:50.590Z,14.45
2023-05-15T21:28:16.961Z,23.05
2023-05-15T21:30:43.423Z,19.23
2023-05-15T21:33:10.126Z,17.35
2023-05-15T21:35:36.590Z,22.15
2023-05-15T21:38:03.211Z,22.10
2023-05-15T21:40:29.561Z,21.58
2023-05-15T21:42:56.012Z,19.42
2023-05-15T21:45:22.364Z,25.42
2023-05-15T21:47:48.807Z,18.08
2023-05-15T21:50:15.205Z,18.65
2023-05-15T21:52:41.877Z,15.18
2023-05-15T21:55:09.070Z,14.07
2023-05-15T21:57:35.565Z,18.63
2023-05-15T22:00:02.566Z,17.80
2023-05-15T22:02:29.152Z,15.40
2023-05-15T22:04:55.448Z,13.07
2023-05-15T22:07:21.724Z,15.82
2023-05-15T22:09:48.189Z,20.65
2023-05-15T22:12:14.531Z,17.05
2023-05-15T22:14:54.526Z,12.95
2023-05-15T22:17:26.413Z,16.48
2023-05-15T22:19:53.002Z,16.08
2023-05-15T22:22:20.891Z,17.08
2023-05-15T22:24:47.854Z,14.27
2023-05-15T22:27:16.496Z,12.00
2023-05-15T22:29:42.875Z,11.07
2023-05-15T22:32:09.258Z,11.90
2023-05-15T22:34:35.865Z,12.35
2023-05-15T22:37:02.220Z,10.95
2023-05-15T22:39:28.570Z,10.77
2023-05-15T22:41:54.991Z,9.63
2023-05-15T22:44:21.432Z,10.25
2023-05-15T22:46:48.034Z,11.32
2023-05-15T22:49:19.192Z,9.82
2023-05-15T22:51:45.743Z,14.27
2023-05-15T22:54:12.200Z,14.15
2023-05-15T22:56:38.643Z,13.70
2023-05-15T22:59:04.959Z,12.45
2023-05-15T23:01:32.278Z,10.57
2023-05-15T23:03:58.841Z,11.95
2023-05-15T23:06:25.387Z,10.07
2023-05-15T23:08:51.899Z,15.35
2023-05-15T23:11:18.211Z,12.32
2023-05-15T23:13:44.570Z,12.93
2023-05-15T23:16:11.019Z,11.18
2023-05-15T23:18:37.412Z,17.85
2023-05-15T23:21:04.855Z,11.95
2023-05-15T23:23:31.259Z,8.63
2023-05-15T23:25:57.656Z,10.93
2023-05-15T23:28:23.966Z,10.18
2023-05-15T23:30:53.800Z,10.10
2023-05-15T23:33:20.406Z,11.25
2023-05-15T23:35:46.833Z,8.60
2023-05-15T23:38:13.200Z,10.95
2023-05-15T23:40:39.620Z,14.07
2023-05-15T23:43:09.001Z,13.70
2023-05-15T23:45:35.383Z,11.80
2023-05-15T23:48:01.722Z,9.70
2023-05-15T23:50:28.487Z,9.45
2023-05-15T23:52:55.157Z,11.63
2023-05-15T23:55:21.443Z,9.18
2023-05-15T23:57:48.307Z,7.70
